createdAt,value
2024-05-09T00:00:02.533Z,95794.00
2024-05-09T00:01:02.571Z,95792.00
2024-05-09T00:02:02.514Z,95792.00
2024-05-09T00:03:02.512Z,95789.00
2024-05-09T00:04:02.576Z,95789.00
2024-05-09T00:05:02.603Z,95788.00
2024-05-09T00:06:02.574Z,95788.00
2024-05-09T00:07:02.464Z,95787.00
2024-05-09T00:08:02.539Z,95788.00
2024-05-09T00:09:02.463Z,95787.00
2024-05-09T00:10:03.160Z,95787.00
2024-05-09T00:11:02.538Z,95786.00
2024-05-09T00:12:02.541Z,95788.00
2024-05-09T00:13:02.478Z,95785.00
2024-05-09T00:14:02.534Z,95789.00
2024-05-09T00:15:02.483Z,95786.00
2024-05-09T00:16:02.508Z,95787.00
2024-05-09T00:17:02.553Z,95788.00
2024-05-09T00:18:03.133Z,95787.00
2024-05-09T00:19:02.557Z,95789.00
2024-05-09T00:20:03.240Z,95787.00
2024-05-09T00:21:02.764Z,95789.00
2024-05-09T00:22:02.696Z,95788.00
2024-05-09T00:23:02.772Z,95788.00
2024-05-09T00:24:02.763Z,95789.00
2024-05-09T00:25:02.770Z,95790.00
2024-05-09T00:26:02.832Z,95788.00
2024-05-09T00:27:02.844Z,95790.00
2024-05-09T00:28:02.887Z,95790.00
2024-05-09T00:29:02.942Z,95789.00
2024-05-09T00:30:04.201Z,95788.00
2024-05-09T00:31:03.002Z,95785.00
2024-05-09T00:32:03.204Z,95784.00
2024-05-09T00:33:03.795Z,95785.00
2024-05-09T00:34:03.471Z,95781.00
2024-05-09T00:35:03.346Z,95780.00
2024-05-09T00:36:03.411Z,95779.00
2024-05-09T00:37:03.505Z,95780.00
2024-05-09T00:38:03.996Z,95779.00
2024-05-09T00:39:03.636Z,95778.00
2024-05-09T00:40:04.567Z,95775.00
2024-05-09T00:41:03.750Z,95778.00
2024-05-09T00:42:03.763Z,95774.00
2024-05-09T00:43:03.779Z,95774.00
2024-05-09T00:44:03.818Z,95775.00
2024-05-09T00:45:03.798Z,95772.00
2024-05-09T00:46:03.832Z,95773.00
2024-05-09T00:47:03.967Z,95772.00
2024-05-09T00:48:04.099Z,95770.00
2024-05-09T00:49:04.033Z,95772.00
2024-05-09T00:50:05.544Z,95770.00
2024-05-09T00:51:04.113Z,95768.00
2024-05-09T00:52:04.020Z,95765.00
2024-05-09T00:53:04.054Z,95764.00
2024-05-09T00:54:04.012Z,95764.00
2024-05-09T00:55:04.041Z,95762.00
2024-05-09T00:56:04.077Z,95758.00
2024-05-09T00:57:04.021Z,95756.00
2024-05-09T00:58:03.986Z,95756.00
2024-05-09T00:59:04.084Z,95754.00
2024-05-09T01:00:06.094Z,95751.00
2024-05-09T01:01:04.094Z,95751.00
2024-05-09T01:02:04.088Z,95748.00
2024-05-09T01:03:04.217Z,95748.00
2024-05-09T01:04:04.151Z,95746.00
2024-05-09T01:05:04.131Z,95745.00
2024-05-09T01:06:04.079Z,95743.00
2024-05-09T01:07:04.046Z,95741.00
2024-05-09T01:08:04.082Z,95743.00
2024-05-09T01:09:04.271Z,95742.00
2024-05-09T01:10:05.535Z,95739.00
2024-05-09T01:11:04.173Z,95740.00
2024-05-09T01:12:04.284Z,95739.00
2024-05-09T01:13:04.097Z,95740.00
2024-05-09T01:14:04.116Z,95738.00
2024-05-09T01:15:04.027Z,95738.00
2024-05-09T01:16:04.039Z,95739.00
2024-05-09T01:17:04.073Z,95739.00
2024-05-09T01:18:04.275Z,95740.00
2024-05-09T01:19:04.171Z,95740.00
2024-05-09T01:20:06.302Z,95741.00
2024-05-09T01:21:04.100Z,95742.00
2024-05-09T01:22:04.056Z,95741.00
2024-05-09T01:23:04.126Z,95741.00
2024-05-09T01:24:04.018Z,95740.00
2024-05-09T01:25:04.060Z,95741.00
2024-05-09T01:26:04.112Z,95742.00
2024-05-09T01:27:04.053Z,95745.00
2024-05-09T01:28:04.067Z,95744.00
2024-05-09T01:29:04.077Z,95744.00
2024-05-09T01:30:09.032Z,95743.00
2024-05-09T01:31:05.063Z,95746.00
2024-05-09T01:32:04.211Z,95745.00
2024-05-09T01:33:04.640Z,95747.00
2024-05-09T01:34:22.790Z,95745.00
2024-05-09T01:35:22.781Z,95745.00
2024-05-09T01:36:22.696Z,95746.00
2024-05-09T01:37:22.688Z,95745.00
2024-05-09T01:38:22.730Z,95746.00
2024-05-09T01:39:23.303Z,95748.00
2024-05-09T01:40:29.288Z,95745.00
2024-05-09T01:41:23.724Z,95745.00
2024-05-09T01:42:22.697Z,95745.00
2024-05-09T01:43:22.705Z,95745.00
2024-05-09T01:44:22.841Z,95743.00
2024-05-09T01:45:22.749Z,95744.00
2024-05-09T01:46:22.749Z,95744.00
2024-05-09T01:47:22.957Z,95743.00
2024-05-09T01:48:22.902Z,95742.00
2024-05-09T01:49:22.930Z,95743.00
2024-05-09T01:50:34.140Z,95740.00
2024-05-09T01:51:23.780Z,95741.00
2024-05-09T01:52:22.778Z,95743.00
2024-05-09T01:53:22.774Z,95743.00
2024-05-09T01:54:22.737Z,95744.00
2024-05-09T01:55:22.773Z,95744.00
2024-05-09T01:56:22.887Z,95745.00
2024-05-09T01:57:22.813Z,95747.00
2024-05-09T01:58:22.855Z,95744.00
2024-05-09T01:59:22.851Z,95746.00
2024-05-09T02:00:33.223Z,95742.00
2024-05-09T02:01:23.944Z,95742.00
2024-05-09T02:02:22.931Z,95744.00
2024-05-09T02:03:22.975Z,95742.00
2024-05-09T02:04:22.939Z,95743.00
2024-05-09T02:05:22.992Z,95742.00
2024-05-09T02:06:22.905Z,95744.00
2024-05-09T02:07:22.818Z,95743.00
2024-05-09T02:08:22.882Z,95744.00
2024-05-09T02:09:22.828Z,95740.00
2024-05-09T02:11:22.851Z,95742.00
2024-05-09T02:12:22.958Z,95740.00
2024-05-09T02:13:22.847Z,95740.00
2024-05-09T02:14:22.888Z,95739.00
2024-05-09T02:15:22.827Z,95740.00
2024-05-09T02:16:22.824Z,95740.00
2024-05-09T02:17:23.095Z,95739.00
2024-05-09T02:18:22.994Z,95740.00
2024-05-09T02:19:23.037Z,95739.00
2024-05-09T02:20:30.263Z,95740.00
2024-05-09T02:21:24.017Z,95743.00
2024-05-09T02:22:22.990Z,95743.00
2024-05-09T02:23:23.073Z,95742.00
2024-05-09T02:24:23.008Z,95741.00
2024-05-09T02:25:23.021Z,95740.00
2024-05-09T02:26:23.043Z,95739.00
2024-05-09T02:27:22.999Z,95738.00
2024-05-09T02:28:23.006Z,95737.00
2024-05-09T02:29:23.087Z,95738.00
2024-05-09T02:30:30.592Z,95738.00
2024-05-09T02:31:24.016Z,95738.00
2024-05-09T02:32:23.100Z,95736.00
2024-05-09T02:33:23.422Z,95734.00
2024-05-09T02:34:23.152Z,95733.00
2024-05-09T02:35:23.121Z,95734.00
2024-05-09T02:36:23.024Z,95732.00
2024-05-09T02:37:23.023Z,95731.00
2024-05-09T02:38:23.067Z,95731.00
2024-05-09T02:39:23.042Z,95731.00
2024-05-09T02:41:23.147Z,95730.00
2024-05-09T02:42:23.044Z,95731.00
2024-05-09T02:43:23.016Z,95730.00
2024-05-09T02:44:23.106Z,95730.00
2024-05-09T02:45:23.086Z,95730.00
2024-05-09T02:46:23.127Z,95731.00
2024-05-09T02:47:23.373Z,95730.00
2024-05-09T02:48:23.285Z,95729.00
2024-05-09T02:49:23.386Z,95729.00
2024-05-09T02:50:30.230Z,95729.00
2024-05-09T02:51:24.336Z,95729.00
2024-05-09T02:52:24.835Z,95731.00
2024-05-09T02:53:23.355Z,95730.00
2024-05-09T02:54:23.324Z,95731.00
2024-05-09T02:55:23.339Z,95731.00
2024-05-09T02:56:23.389Z,95731.00
2024-05-09T02:57:23.335Z,95732.00
2024-05-09T02:58:23.331Z,95732.00
2024-05-09T02:59:23.431Z,95733.00
2024-05-09T03:00:29.789Z,95730.00
2024-05-09T03:01:24.385Z,95731.00
2024-05-09T03:02:23.477Z,95729.00
2024-05-09T03:03:23.793Z,95730.00
2024-05-09T03:04:23.424Z,95730.00
2024-05-09T03:05:23.398Z,95730.00
2024-05-09T03:06:23.395Z,95730.00
2024-05-09T03:07:23.402Z,95730.00
2024-05-09T03:08:23.421Z,95727.00
2024-05-09T03:09:23.406Z,95728.00
2024-05-09T03:10:28.480Z,95728.00
2024-05-09T03:11:24.508Z,95728.00
2024-05-09T03:12:23.551Z,95727.00
2024-05-09T03:13:23.371Z,95725.00
2024-05-09T03:14:23.502Z,95728.00
2024-05-09T03:15:23.393Z,95726.00
2024-05-09T03:16:23.387Z,95725.00
2024-05-09T03:17:23.588Z,95727.00
2024-05-09T03:18:23.510Z,95728.00
2024-05-09T03:19:23.519Z,95726.00
2024-05-09T03:20:27.570Z,95727.00
2024-05-09T03:21:24.416Z,95730.00
2024-05-09T03:22:23.413Z,95732.00
2024-05-09T03:23:23.513Z,95732.00
2024-05-09T03:24:23.399Z,95733.00
2024-05-09T03:25:23.454Z,95731.00
2024-05-09T03:26:23.510Z,95731.00
2024-05-09T03:27:23.455Z,95733.00
2024-05-09T03:28:23.422Z,95735.00
2024-05-09T03:29:23.504Z,95735.00
2024-05-09T03:30:30.956Z,95734.00
2024-05-09T03:31:24.428Z,95734.00
2024-05-09T03:32:23.495Z,95734.00
2024-05-09T03:33:23.852Z,95735.00
2024-05-09T03:34:23.475Z,95731.00
2024-05-09T03:35:23.635Z,95732.00
2024-05-09T03:36:23.563Z,95733.00
2024-05-09T03:37:23.593Z,95733.00
2024-05-09T03:38:23.659Z,95733.00
2024-05-09T03:39:23.679Z,95734.00
2024-05-09T03:40:26.615Z,95734.00
2024-05-09T03:41:24.740Z,95734.00
2024-05-09T03:42:23.729Z,95735.00
2024-05-09T03:43:23.774Z,95736.00
2024-05-09T03:44:23.788Z,95735.00
2024-05-09T03:45:23.750Z,95733.00
2024-05-09T03:46:23.751Z,95733.00
2024-05-09T03:47:23.990Z,95733.00
2024-05-09T03:48:23.997Z,95732.00
2024-05-09T03:49:24.000Z,95732.00
2024-05-09T03:50:30.125Z,95735.00
2024-05-09T03:51:24.793Z,95732.00
2024-05-09T03:52:23.752Z,95734.00
2024-05-09T03:53:26.447Z,95735.00
2024-05-09T03:54:23.766Z,95738.00
2024-05-09T03:55:23.798Z,95742.00
2024-05-09T03:56:23.846Z,95743.00
2024-05-09T03:57:23.781Z,95744.00
2024-05-09T03:58:23.771Z,95744.00
2024-05-09T03:59:23.790Z,95746.00
2024-05-09T04:00:31.184Z,95748.00
2024-05-09T04:01:24.889Z,95748.00
2024-05-09T04:02:23.838Z,95749.00
2024-05-09T04:03:23.975Z,95749.00
2024-05-09T04:04:23.911Z,95751.00
2024-05-09T04:05:23.841Z,95750.00
2024-05-09T04:06:23.826Z,95752.00
2024-05-09T04:07:23.865Z,95752.00
2024-05-09T04:08:23.992Z,95754.00
2024-05-09T04:09:23.947Z,95755.00
2024-05-09T04:10:30.915Z,95755.00
2024-05-09T04:11:25.089Z,95755.00
2024-05-09T04:12:24.053Z,95758.00
2024-05-09T04:13:24.005Z,95757.00
2024-05-09T04:14:24.049Z,95756.00
2024-05-09T04:15:24.031Z,95759.00
2024-05-09T04:16:24.094Z,95758.00
2024-05-09T04:17:24.276Z,95756.00
2024-05-09T04:18:24.278Z,95756.00
2024-05-09T04:19:24.378Z,95756.00
2024-05-09T04:20:33.638Z,95756.00
2024-05-09T04:21:25.190Z,95756.00
2024-05-09T04:22:24.210Z,95755.00
2024-05-09T04:23:24.189Z,95756.00
2024-05-09T04:24:24.176Z,95758.00
2024-05-09T04:25:24.183Z,95757.00
2024-05-09T04:26:24.249Z,95757.00
2024-05-09T04:27:24.190Z,95758.00
2024-05-09T04:28:31.303Z,95758.00
2024-05-09T04:29:31.374Z,95759.00
2024-05-09T04:30:37.794Z,95761.00
2024-05-09T04:31:43.353Z,95765.00
2024-05-09T04:32:43.406Z,95763.00
2024-05-09T04:33:43.476Z,95765.00
2024-05-09T04:34:43.330Z,95765.00
2024-05-09T04:35:43.913Z,95765.00
2024-05-09T04:36:44.715Z,95764.00
2024-05-09T04:37:43.358Z,95766.00
2024-05-09T04:38:43.453Z,95764.00
2024-05-09T04:39:43.353Z,95763.00
2024-05-09T04:40:43.385Z,95763.00
2024-05-09T04:41:43.328Z,95765.00
2024-05-09T04:42:43.359Z,95764.00
2024-05-09T04:43:43.332Z,95765.00
2024-05-09T04:44:43.338Z,95762.00
2024-05-09T04:45:43.355Z,95764.00
2024-05-09T04:46:43.347Z,95770.00
2024-05-09T04:47:43.509Z,95768.00
2024-05-09T04:48:43.619Z,95768.00
2024-05-09T04:49:43.323Z,95766.00
2024-05-09T04:50:43.433Z,95766.00
2024-05-09T04:51:43.504Z,95774.00
2024-05-09T04:52:43.357Z,95777.00
2024-05-09T04:53:43.566Z,95777.00
2024-05-09T04:54:43.360Z,95778.00
2024-05-09T04:55:43.387Z,95779.00
2024-05-09T04:56:43.413Z,95779.00
2024-05-09T04:57:43.355Z,95780.00
2024-05-09T04:58:43.386Z,95779.00
2024-05-09T04:59:43.350Z,95780.00
2024-05-09T05:00:43.466Z,95782.00
2024-05-09T05:01:43.369Z,95780.00
2024-05-09T05:02:43.582Z,95781.00
2024-05-09T05:03:43.605Z,95781.00
2024-05-09T05:04:43.592Z,95782.00
2024-05-09T05:05:44.771Z,95779.00
2024-05-09T05:06:43.477Z,95783.00
2024-05-09T05:07:43.554Z,95782.00
2024-05-09T05:08:43.590Z,95781.00
2024-05-09T05:09:43.622Z,95778.00
2024-05-09T05:10:43.722Z,95779.00
2024-05-09T05:11:43.919Z,95780.00
2024-05-09T05:12:43.754Z,95780.00
2024-05-09T05:13:43.939Z,95780.00
2024-05-09T05:14:44.472Z,95781.00
2024-05-09T05:15:43.915Z,95780.00
2024-05-09T05:16:43.940Z,95779.00
2024-05-09T05:17:44.158Z,95781.00
2024-05-09T05:18:44.167Z,95782.00
2024-05-09T05:19:44.337Z,95782.00
2024-05-09T05:20:44.365Z,95785.00
2024-05-09T05:21:44.208Z,95786.00
2024-05-09T05:22:44.268Z,95783.00
2024-05-09T05:23:44.349Z,95785.00
2024-05-09T05:24:44.348Z,95787.00
2024-05-09T05:25:44.491Z,95785.00
2024-05-09T05:26:44.476Z,95785.00
2024-05-09T05:27:44.445Z,95785.00
2024-05-09T05:28:44.581Z,95786.00
2024-05-09T05:29:44.579Z,95786.00
2024-05-09T05:30:44.595Z,95785.00
2024-05-09T05:31:44.782Z,95786.00
2024-05-09T05:32:44.892Z,95786.00
2024-05-09T05:33:44.904Z,95789.00
2024-05-09T05:34:44.812Z,95788.00
2024-05-09T05:35:44.929Z,95793.00
2024-05-09T05:36:44.883Z,95789.00
2024-05-09T05:37:45.006Z,95791.00
2024-05-09T05:38:45.139Z,95791.00
2024-05-09T05:39:45.048Z,95792.00
2024-05-09T05:40:45.118Z,95790.00
2024-05-09T05:41:45.153Z,95792.00
2024-05-09T05:42:45.197Z,95794.00
2024-05-09T05:43:45.290Z,95792.00
2024-05-09T05:44:45.261Z,95793.00
2024-05-09T05:45:45.365Z,95796.00
2024-05-09T05:46:45.471Z,95792.00
2024-05-09T05:47:45.834Z,95795.00
2024-05-09T05:48:45.570Z,95795.00
2024-05-09T05:49:45.547Z,95797.00
2024-05-09T05:50:45.814Z,95796.00
2024-05-09T05:51:45.627Z,95795.00
2024-05-09T05:52:45.681Z,95794.00
2024-05-09T05:53:45.752Z,95795.00
2024-05-09T05:54:45.767Z,95795.00
2024-05-09T05:55:45.834Z,95794.00
2024-05-09T05:56:45.983Z,95793.00
2024-05-09T05:57:45.909Z,95796.00
2024-05-09T05:58:45.958Z,95794.00
2024-05-09T05:59:46.033Z,95792.00
2024-05-09T06:00:46.137Z,95793.00
2024-05-09T06:01:46.159Z,95792.00
2024-05-09T06:02:46.278Z,95790.00
2024-05-09T06:03:46.355Z,95789.00
2024-05-09T06:04:46.317Z,95788.00
2024-05-09T06:05:46.429Z,95788.00
2024-05-09T06:06:46.326Z,95786.00
2024-05-09T06:07:46.378Z,95785.00
2024-05-09T06:08:46.497Z,95789.00
2024-05-09T06:09:48.292Z,95787.00
2024-05-09T06:10:46.578Z,95789.00
2024-05-09T06:11:46.597Z,95790.00
2024-05-09T06:12:46.488Z,95785.00
2024-05-09T06:13:46.490Z,95786.00
2024-05-09T06:14:46.451Z,95785.00
2024-05-09T06:15:46.455Z,95784.00
2024-05-09T06:16:46.484Z,95786.00
2024-05-09T06:17:46.523Z,95785.00
2024-05-09T06:18:46.585Z,95784.00
2024-05-09T06:19:46.568Z,95787.00
2024-05-09T06:20:46.589Z,95785.00
2024-05-09T06:21:46.473Z,95782.00
2024-05-09T06:22:46.496Z,95783.00
2024-05-09T06:23:46.540Z,95781.00
2024-05-09T06:24:46.465Z,95782.00
2024-05-09T06:25:46.517Z,95783.00
2024-05-09T06:26:46.524Z,95784.00
2024-05-09T06:27:46.480Z,95782.00
2024-05-09T06:28:46.519Z,95782.00
2024-05-09T06:29:46.477Z,95781.00
2024-05-09T06:30:46.460Z,95780.00
2024-05-09T06:31:46.513Z,95779.00
2024-05-09T06:32:46.553Z,95779.00
2024-05-09T06:33:46.647Z,95780.00
2024-05-09T06:34:46.683Z,95779.00
2024-05-09T06:35:46.642Z,95780.00
2024-05-09T06:36:46.470Z,95779.00
2024-05-09T06:37:46.543Z,95778.00
2024-05-09T06:38:46.509Z,95777.00
2024-05-09T06:39:46.518Z,95776.00
2024-05-09T06:40:46.608Z,95772.00
2024-05-09T06:41:46.519Z,95773.00
2024-05-09T06:42:46.556Z,95772.00
2024-05-09T06:43:46.710Z,95770.00
2024-05-09T06:44:46.549Z,95772.00
2024-05-09T06:45:46.555Z,95770.00
2024-05-09T06:46:46.695Z,95772.00
2024-05-09T06:47:46.776Z,95772.00
2024-05-09T06:48:46.903Z,95773.00
2024-05-09T06:49:46.633Z,95773.00
2024-05-09T06:50:46.674Z,95777.00
2024-05-09T06:51:46.545Z,95780.00
2024-05-09T06:52:46.599Z,95783.00
2024-05-09T06:53:46.601Z,95779.00
2024-05-09T06:54:46.574Z,95779.00
2024-05-09T06:55:46.643Z,95782.00
2024-05-09T06:56:46.674Z,95779.00
2024-05-09T06:57:46.739Z,95778.00
2024-05-09T06:58:46.799Z,95779.00
2024-05-09T06:59:46.820Z,95777.00
2024-05-09T07:00:46.956Z,95775.00
2024-05-09T07:01:46.934Z,95773.00
2024-05-09T07:02:46.994Z,95773.00
2024-05-09T07:03:47.127Z,95773.00
2024-05-09T07:04:47.236Z,95776.00
2024-05-09T07:05:48.559Z,95776.00
2024-05-09T07:06:47.156Z,95778.00
2024-05-09T07:07:47.221Z,95780.00
2024-05-09T07:08:48.690Z,95783.00
2024-05-09T07:09:47.282Z,95780.00
2024-05-09T07:10:47.642Z,95780.00
2024-05-09T07:11:47.599Z,95777.00
2024-05-09T07:12:47.476Z,95778.00
2024-05-09T07:13:47.606Z,95778.00
2024-05-09T07:14:47.624Z,95774.00
2024-05-09T07:15:47.665Z,95776.00
2024-05-09T07:16:47.792Z,95777.00
2024-05-09T07:17:47.987Z,95776.00
2024-05-09T07:18:48.007Z,95775.00
2024-05-09T07:19:47.975Z,95774.00
2024-05-09T07:20:48.525Z,95774.00
2024-05-09T07:21:47.941Z,95771.00
2024-05-09T07:22:48.100Z,95769.00
2024-05-09T07:23:48.222Z,95768.00
2024-05-09T07:24:48.095Z,95766.00
2024-05-09T07:25:48.305Z,95766.00
2024-05-09T07:26:48.209Z,95763.00
2024-05-09T07:27:48.258Z,95763.00
2024-05-09T07:28:48.311Z,95762.00
2024-05-09T07:29:48.359Z,95761.00
2024-05-09T07:30:48.460Z,95762.00
2024-05-09T07:31:48.475Z,95762.00
2024-05-09T07:32:48.804Z,95760.00
2024-05-09T07:33:48.598Z,95760.00
2024-05-09T07:34:48.609Z,95760.00
2024-05-09T07:35:48.615Z,95760.00
2024-05-09T07:36:48.617Z,95763.00
2024-05-09T07:37:48.724Z,95761.00
2024-05-09T07:38:48.747Z,95765.00
2024-05-09T07:39:48.812Z,95766.00
2024-05-09T07:40:48.938Z,95763.00
2024-05-09T07:41:48.877Z,95762.00
2024-05-09T07:42:48.903Z,95766.00
2024-05-09T07:43:48.993Z,95763.00
2024-05-09T07:44:49.010Z,95762.00
2024-05-09T07:45:53.516Z,95759.00
2024-05-09T07:47:52.259Z,95758.00
2024-05-09T07:49:13.674Z,95756.00
2024-05-09T07:53:17.537Z,95753.00
2024-05-09T07:53:35.285Z,95753.00
2024-05-09T07:53:52.607Z,95748.00
2024-05-09T07:54:49.356Z,95751.00
2024-05-09T07:55:49.244Z,95750.00
2024-05-09T07:56:49.224Z,95747.00
2024-05-09T07:57:49.162Z,95747.00
2024-05-09T07:58:49.077Z,95751.00
2024-05-09T07:59:49.109Z,95747.00
2024-05-09T08:00:49.199Z,95749.00
2024-05-09T08:01:49.202Z,95748.00
2024-05-09T08:02:49.139Z,95747.00
2024-05-09T08:03:49.350Z,95746.00
2024-05-09T08:04:49.167Z,95746.00
2024-05-09T08:05:49.145Z,95748.00
2024-05-09T08:06:49.114Z,95749.00
2024-05-09T08:07:49.102Z,95749.00
2024-05-09T08:08:49.084Z,95746.00
2024-05-09T08:09:49.132Z,95748.00
2024-05-09T08:10:49.151Z,95744.00
2024-05-09T08:11:49.135Z,95743.00
2024-05-09T08:12:49.175Z,95741.00
2024-05-09T08:13:49.143Z,95741.00
2024-05-09T08:14:49.098Z,95739.00
2024-05-09T08:15:49.141Z,95741.00
2024-05-09T08:16:49.119Z,95741.00
2024-05-09T08:17:49.157Z,95741.00
2024-05-09T08:18:49.232Z,95739.00
2024-05-09T08:19:49.217Z,95739.00
2024-05-09T08:20:49.211Z,95737.00
2024-05-09T08:21:49.133Z,95743.00
2024-05-09T08:22:50.079Z,95740.00
2024-05-09T08:23:49.137Z,95735.00
2024-05-09T08:24:49.194Z,95734.00
2024-05-09T08:25:49.121Z,95734.00
2024-05-09T08:26:49.105Z,95737.00
2024-05-09T08:27:49.223Z,95735.00
2024-05-09T08:28:49.128Z,95734.00
2024-05-09T08:29:49.184Z,95733.00
2024-05-09T08:30:49.312Z,95731.00
2024-05-09T08:31:49.185Z,95729.00
2024-05-09T08:32:49.217Z,95728.00
2024-05-09T08:33:49.250Z,95729.00
2024-05-09T08:34:49.182Z,95727.00
2024-05-09T08:35:49.135Z,95730.00
2024-05-09T08:36:49.157Z,95731.00
2024-05-09T08:37:49.275Z,95731.00
2024-05-09T08:38:49.212Z,95730.00
2024-05-09T08:39:49.297Z,95731.00
2024-05-09T08:40:49.414Z,95730.00
2024-05-09T08:41:49.306Z,95732.00
2024-05-09T08:42:49.471Z,95731.00
2024-05-09T08:43:49.414Z,95731.00
2024-05-09T08:44:49.432Z,95730.00
2024-05-09T08:45:49.601Z,95730.00
2024-05-09T08:46:49.544Z,95729.00
2024-05-09T08:47:49.738Z,95728.00
2024-05-09T08:48:49.971Z,95727.00
2024-05-09T08:49:49.684Z,95725.00
2024-05-09T08:50:49.738Z,95725.00
2024-05-09T08:51:49.756Z,95724.00
2024-05-09T08:52:49.698Z,95723.00
2024-05-09T08:53:49.740Z,95726.00
2024-05-09T08:54:49.753Z,95724.00
2024-05-09T08:55:49.700Z,95721.00
2024-05-09T08:56:49.685Z,95722.00
2024-05-09T08:57:49.824Z,95721.00
2024-05-09T08:58:49.691Z,95725.00
2024-05-09T08:59:49.702Z,95724.00
2024-05-09T09:00:50.042Z,95721.00
2024-05-09T09:01:49.871Z,95720.00
2024-05-09T09:02:49.759Z,95722.00
2024-05-09T09:03:49.866Z,95723.00
2024-05-09T09:04:49.919Z,95719.00
2024-05-09T09:05:49.899Z,95720.00
2024-05-09T09:06:49.859Z,95716.00
2024-05-09T09:07:49.964Z,95718.00
2024-05-09T09:08:50.006Z,95716.00
2024-05-09T09:09:50.096Z,95716.00
2024-05-09T09:10:50.162Z,95711.00
2024-05-09T09:11:50.258Z,95712.00
2024-05-09T09:12:50.378Z,95712.00
2024-05-09T09:13:50.426Z,95712.00
2024-05-09T09:14:50.465Z,95710.00
2024-05-09T09:15:50.664Z,95711.00
2024-05-09T09:16:50.546Z,95711.00
2024-05-09T09:17:50.671Z,95709.00
2024-05-09T09:18:50.857Z,95706.00
2024-05-09T09:19:50.824Z,95706.00
2024-05-09T09:20:50.911Z,95705.00
2024-05-09T09:21:51.065Z,95706.00
2024-05-09T09:22:51.099Z,95705.00
2024-05-09T09:23:51.209Z,95706.00
2024-05-09T09:24:51.359Z,95704.00
2024-05-09T09:25:51.431Z,95700.00
2024-05-09T09:26:51.513Z,95696.00
2024-05-09T09:27:51.741Z,95696.00
2024-05-09T09:28:51.701Z,95698.00
2024-05-09T09:29:51.801Z,95695.00
2024-05-09T09:30:51.935Z,95696.00
2024-05-09T09:31:51.998Z,95696.00
2024-05-09T09:32:52.241Z,95699.00
2024-05-09T09:33:52.595Z,95697.00
2024-05-09T09:34:52.399Z,95696.00
2024-05-09T09:35:52.496Z,95693.00
2024-05-09T09:36:52.680Z,95693.00
2024-05-09T09:37:52.724Z,95694.00
2024-05-09T09:38:52.826Z,95694.00
2024-05-09T09:39:52.972Z,95694.00
2024-05-09T09:40:53.054Z,95689.00
2024-05-09T09:41:53.127Z,95692.00
2024-05-09T09:42:53.299Z,95688.00
2024-05-09T09:43:53.389Z,95684.00
2024-05-09T09:45:01.971Z,95678.00
2024-05-09T09:45:54.529Z,95680.00
2024-05-09T09:46:53.521Z,95676.00
2024-05-09T09:47:53.690Z,95674.00
2024-05-09T09:48:53.582Z,95673.00
2024-05-09T09:49:53.574Z,95675.00
2024-05-09T09:50:53.543Z,95673.00
2024-05-09T09:51:53.571Z,95675.00
2024-05-09T09:52:53.559Z,95672.00
2024-05-09T09:53:53.562Z,95670.00
2024-05-09T09:54:53.647Z,95671.00
2024-05-09T09:55:53.735Z,95671.00
2024-05-09T09:56:53.854Z,95672.00
2024-05-09T09:57:53.972Z,95672.00
2024-05-09T09:58:54.076Z,95671.00
2024-05-09T09:59:54.160Z,95671.00
2024-05-09T10:00:54.459Z,95671.00
2024-05-09T10:01:54.376Z,95669.00
2024-05-09T10:02:54.506Z,95668.00
2024-05-09T10:03:54.685Z,95664.00
2024-05-09T10:04:54.803Z,95664.00
2024-05-09T10:05:54.884Z,95660.00
2024-05-09T10:06:54.955Z,95656.00
2024-05-09T10:07:55.063Z,95656.00
2024-05-09T10:08:55.155Z,95653.00
2024-05-09T10:09:55.388Z,95652.00
2024-05-09T10:10:55.621Z,95650.00
2024-05-09T10:12:00.017Z,95651.00
2024-05-09T10:12:56.632Z,95647.00
2024-05-09T10:13:55.564Z,95646.00
2024-05-09T10:14:55.571Z,95643.00
2024-05-09T10:15:55.604Z,95640.00
2024-05-09T10:16:55.587Z,95639.00
2024-05-09T10:17:55.743Z,95640.00
2024-05-09T10:18:56.256Z,95633.00
2024-05-09T10:19:55.643Z,95631.00
2024-05-09T10:20:55.594Z,95631.00
2024-05-09T10:21:55.636Z,95629.00
2024-05-09T10:22:55.579Z,95629.00
2024-05-09T10:23:55.622Z,95628.00
2024-05-09T10:24:55.747Z,95632.00
2024-05-09T10:25:55.802Z,95630.00
2024-05-09T10:26:55.960Z,95627.00
2024-05-09T10:27:56.157Z,95625.00
2024-05-09T10:28:56.203Z,95625.00
2024-05-09T10:29:56.328Z,95625.00
2024-05-09T10:30:56.476Z,95621.00
2024-05-09T10:31:56.566Z,95621.00
2024-05-09T10:32:56.860Z,95623.00
2024-05-09T10:33:57.054Z,95623.00
2024-05-09T10:34:57.086Z,95621.00
2024-05-09T10:35:57.087Z,95620.00
2024-05-09T10:36:57.271Z,95622.00
2024-05-09T10:37:57.324Z,95619.00
2024-05-09T10:38:57.523Z,95619.00
2024-05-09T10:39:57.651Z,95616.00
2024-05-09T10:40:57.731Z,95616.00
2024-05-09T10:41:57.845Z,95615.00
2024-05-09T10:42:58.040Z,95612.00
2024-05-09T10:43:58.074Z,95611.00
2024-05-09T10:44:58.276Z,95610.00
2024-05-09T10:45:58.371Z,95610.00
2024-05-09T10:46:58.495Z,95610.00
2024-05-09T10:47:58.790Z,95608.00
2024-05-09T10:49:00.288Z,95605.00
2024-05-09T10:49:58.786Z,95606.00
2024-05-09T10:50:59.621Z,95604.00
2024-05-09T10:51:58.790Z,95603.00
2024-05-09T10:52:58.749Z,95603.00
2024-05-09T10:53:58.758Z,95601.00
2024-05-09T10:54:59.926Z,95600.00
2024-05-09T10:55:58.741Z,95599.00
2024-05-09T10:56:58.747Z,95597.00
2024-05-09T10:57:58.807Z,95595.00
2024-05-09T10:58:58.742Z,95593.00
2024-05-09T10:59:58.743Z,95592.00
2024-05-09T11:00:59.372Z,95587.00
2024-05-09T11:01:58.848Z,95586.00
2024-05-09T11:02:58.947Z,95588.00
2024-05-09T11:03:59.140Z,95587.00
2024-05-09T11:04:59.341Z,95586.00
2024-05-09T11:05:59.345Z,95583.00
2024-05-09T11:07:00.992Z,95585.00
2024-05-09T11:07:59.399Z,95577.00
2024-05-09T11:08:59.377Z,95577.00
2024-05-09T11:09:59.465Z,95579.00
2024-05-09T11:10:59.687Z,95577.00
2024-05-09T11:11:59.531Z,95577.00
2024-05-09T11:12:59.513Z,95573.00
2024-05-09T11:13:59.440Z,95572.00
2024-05-09T11:14:59.446Z,95573.00
2024-05-09T11:15:59.585Z,95572.00
2024-05-09T11:16:59.461Z,95577.00
2024-05-09T11:17:59.487Z,95575.00
2024-05-09T11:18:59.892Z,95575.00
2024-05-09T11:19:59.527Z,95574.00
2024-05-09T11:20:59.479Z,95570.00
2024-05-09T11:21:59.475Z,95567.00
2024-05-09T11:22:59.469Z,95568.00
2024-05-09T11:23:59.433Z,95567.00
2024-05-09T11:24:59.521Z,95563.00
2024-05-09T11:25:59.573Z,95562.00
2024-05-09T11:26:59.460Z,95560.00
2024-05-09T11:27:59.487Z,95557.00
2024-05-09T11:28:59.474Z,95558.00
2024-05-09T11:29:59.455Z,95555.00
2024-05-09T11:30:59.488Z,95558.00
2024-05-09T11:31:59.472Z,95560.00
2024-05-09T11:32:59.984Z,95560.00
2024-05-09T11:33:59.487Z,95552.00
2024-05-09T11:34:59.475Z,95555.00
2024-05-09T11:35:59.553Z,95552.00
2024-05-09T11:36:59.692Z,95552.00
2024-05-09T11:37:59.723Z,95548.00
2024-05-09T11:38:59.854Z,95547.00
2024-05-09T11:40:00.018Z,95550.00
2024-05-09T11:41:00.063Z,95548.00
2024-05-09T11:42:00.180Z,95546.00
2024-05-09T11:43:00.304Z,95545.00
2024-05-09T11:44:00.426Z,95547.00
2024-05-09T11:45:00.545Z,95544.00
2024-05-09T11:46:00.788Z,95536.00
2024-05-09T11:47:00.787Z,95536.00
2024-05-09T11:48:01.054Z,95539.00
2024-05-09T11:49:01.123Z,95537.00
2024-05-09T11:50:01.279Z,95529.00